Race Results for
Bump N' Grind XVI
Birmingham, AL
(Event Information)
View By:
Cross Country on 06/06/2010

Note: Ranking points are NOT upgrade points. An explanation of ranking points can be found here.


Men - Single Speed - open

 Place Points NameCity, StateTime USAC #BibTeam
1 Sam Porter   1:38:55.26  2202 
2 Matthew Johnson   Jacksonville, AL1:39:35.77 161456  2096 Mellow Mushroom Racing
3 Tyler West   1:40:24.47  2194 
4 Chad Taylor   Prattville, AL1:41:33.61 35067  2117 Competitive Velo Cycling
5 Darius Sampey   Baton Rouge, LA1:41:41.75 187769  2068 Raising Cane's Racing
7 Derek Zimmerman   Greenville, SC1:43:43.33 304961  3060 
8 Kevin Greene   1:43:59.76  2022 
9 Heath Hillman   1:45:29.21  2149 
10 Sean Malone   Birmingham, AL1:47:14.02 308635  2193 
11 Chris Coren   Atlantakennesaw, GA1:48:26.22 239384  2073 
12 Scott Hargrove   Jena, LA1:51:32.82 255902  2165 
13 Eric Capley   1:54:57.53  2188 
14 Glen Slater   1:55:54.46  2158 
15 Nathan Graves   1:59:26.59  2176 
16 Ken Melvin   2:04:59.98  2186 
17 Jeff Boswell   Steamboat Springs, CO2:05:53.25 208412  2035 Ridgeland Cycling Club
18 Jack Hamilton   2:08:37.68  2040 
19 Joe Russo   2:17:00.67  2065 
20 James Beck   2:17:00.74  2020 
21 Drennan Saul   DNF  2179 

Men - Cat 3 Junior - Bgn - 11 & 12

 Place Points NameCity, StateTime USAC #BibTeam
1 Colter Foster   0:16:12.68  3069 
2 William Schlemmer   0:17:54.81  3029 
3 Gage Camp   0:18:04.75  3014 BUMP
4 Abby Mullins   0:19:47.76  3075 
5 Andrew Reeves   0:20:14.43  3015 
6 Jermaine Hood   0:26:27.33  3066 

Men - Cat 3 Junior - Bgn - 13 & 14

 Place Points NameCity, StateTime USAC #BibTeam
1 Dalton Meadows   0:32:15.38  3085 
2 Nicholas Waee   0:34:34.63  3054 
3 Michael Duldt   0:36:34.25  3083 
4 Zack Tanz   0:41:42.62  3052 

Men - Cat 3 Clydesdale - Bgn - open

 Place Points NameCity, StateTime USAC #BibTeam
1 Brad Spencer   0:47:53.91  3068 
2 Neal Chandler   0:52:26.64  3016 

Men - Cat 2 Junior - Sport - 15-18

 Place Points NameCity, StateTime USAC #BibTeam
1 Matthew Kogel   Augusta, GA1:51:09.23 295921  2192 
2 Carter Anderson   Dunwoody, GA1:52:07.88 268382  2009 
3 Jerry Dufour   Birmingham, AL1:52:39.85 276258  2084 
4 Elliott Baring   Cumming, GA2:12:06.03 305958  2015 

Men - Cat 2 Clydesdale - Sport

 Place Points NameCity, StateTime USAC #BibTeam
1 Brandon Lee   Greenville, SC1:45:23.69 160026  2101 
2 Eddie Thomas   1:45:26.55  2109 
3 Igor Nikolic   1:54:08.02  2203 
4 Mark Duffus   1:55:42.61  2080 
5 Jerome Davenport   Huntsville, AL1:56:10.61 271799  2047 Spring City Cycling Club
6 Oscar Manrique   Miami, FL1:57:22.41 233837  2005 
7 Duff Brumley   1:57:56.29  2003 
8 Jason Jowers   2:02:21.54  2074 
9 Lon Cullen   2:03:47.12  2077 
10 Christian Leask   Taylor, MS2:05:59.98 102326  2201 Litespeed-bmw
11 Andrew Hutchison   2:08:07.44  2094 
12 Todd Rosser   Columbiana, AL2:12:00.69 302631  2195 
13 James Mabry   2:15:15.37  2123 
14 Rich Leeman   2:30:42.43  3043 River City Racer

Men - Pro

 Place Points NameCity, StateTime USAC #BibTeam
1 Ryan Woodall   Ocala, FL1:56:19.34 153440  19 
2 Thomas Turner   Canton, GA1:57:19.75 103410  18 
3 Tristan Cowie   Brevard , NC2:00:34.86 220084  10 
4 Travis Livermon   Lewisville, NC2:01:07.06 161583  13 
5 Anthony Slowinski   Louisville, KY2:03:51.97 121030  11 
6 Wesley Lamberson   Limestone, TN2:05:09.68 268691  20 
7 Tristan Uhl   Austin, TX2:05:27.59 168160  12 
8 Aaron Oakes   Richmond, VT2:07:10.56 180389  University Of Massachusetts-amherst
9 Cory Rimmer   Friendsville, TN2:10:11.55 235910  24 
10 Alex Ryan   Lewisville, NC2:10:15.02 173542  16 Paceline Bicycles
11 Robert Marion   Mount Airy, NC2:15:07.29 220597  46 Quick Release Racing Inc.
12 Scott Kuppersmith   Ridgeland, MS2:18:25.91 213439  25 Herring Gas Cycling
13 Jeremy Chambers   Murfreesboro, TN2:21:52.04 244154  
14 Joshua Rosby   Baton Rouge, LA2:48:27.82 171261  21 Raising Cane's Racing
15 Robert Kendall   Georgetown, INDNF 117036  22 Team Barbasol/rapid Transit

Men - Cat 1 - Expert - 19-29

 Place Points NameCity, StateTime USAC #BibTeam
1 Andrew Johnston   Lilburn, GA2:04:52.55 18075  1036 
2 Jonathan Schottler   Overland Park, KS2:05:44.46 233567  1009 Columbia Bike Club Race Team
3 Tanner Hurst   Gallatin, TN2:10:43.58 277734  1071 Team Bikers Choice
4 Chase Dickens   Mount Airy, NC2:10:51.47 253981  47 
5 stephen hyde   Easthampton, MA2:11:27.73 305773  1066 
6 Andrew Boyd   Hoover, AL2:13:33.08 173776  1075 
7 Sebastian Ortiz   Miami, FL2:13:51.29 234603  1000 
8 Zachary Ball   Tallahassee, FL2:14:03.10 144436  1006 Gulf Coast Velo
9 Matthew Phillips   Charleston, WV2:14:59.12 286422  1012 Haymarket Bicycles
10 Frank Webber   Little Rock, AR2:16:47.71 260111  1045 Central Arkansas Velo/carve
11 Brent Hall   Lakeland, FL2:19:10.17 247826  1017 
12 Brian Myrick   Chattanooga, TN2:20:49.67 172684  1050 
13 Erick Carlson   Atlanta, GA2:35:55.56 75261  1078 
14 Malachi Peacock   Athens, GA2:36:15.06 188717  1008 
15 Kevin Conerly   Brandon, MS3:14:52.03 290891  1025 
16 Jansen Lindner   Covington, GADNF 222461  1033 Fulton Flyers Cycling Club
17 Matt Schupp   Nashville, TNDNF 291441  1027 Team Bikers Choice
18 Kyle Taylor   Nashville, TNDNF 271016  1055 

Men - Cat 1 - Expert - 30-34

 Place Points NameCity, StateTime USAC #BibTeam
1 Craig Evans   Hendersonville, TN2:02:59.49 200382  1047 Harpeth Bicycles Racing Team
2 Omar Fraser   Vestavia Hills, AL2:07:05.50 272675  1083 
3 Joseph Dabbs   Homewood, AL2:09:12.10 218784  1018 Ridgeland Cycling Club
4 Jason Betz   Baton Rouge, LA2:13:04.26 263143  1013 
5 Scott Burton   Roanoke, VA2:14:30.45 192566  1046 
6 Fred Smith   Knoxville, TN2:17:13.58 310414  1052 
7 Joe Augustine   Albuquerque, NM2:17:56.09 2077  1051 
8 Chris Smithwick   Erie, CO2:20:36.37 166167  1053 
9 Ed Merritt   Boone, NC2:22:18.01 301877  1049 Birmingham Bicycle
10 Derek Harris   Owensboro, KY2:34:03.25 218402  1020 
11 Nathan Haslick   Grand Haven Mi3:00:20.02 163685  1082 International Christian Cycling Club

Men - Cat 1 - Expert - 35-39

 Place Points NameCity, StateTime USAC #BibTeam
1 Shey Lindner   Covington, GA2:09:47.38 195152  1041 Fulton Flyers Cycling Club
2 Lukasz Ziemba   Gainesville, FL2:13:30.75 292744  1035 
3 Cleve Blackwell   Greenville, SC2:14:05.78 144020  1060 
4 Scott Borne   Covington, LA2:19:27.64 228867  1014 
5 Paul Ruhling   Chattanooga, TN2:23:19.98 137672  1081 Durango Wheel Club
6 Jonathan Robbins   Hoover, AL2:25:06.43 139060  1062 Red Mountain Wheelmen
7 Nathan Means   Columbia, MO2:27:03.69 102886  1010 Columbia Bike Club Race Team
8 Darien Angelier   Tallahassee, FL2:27:53.63 168415  1004 Atomic Race Team
9 Christopher Hovatter   Decatur, GA2:33:51.36 79288  1077 
10 Jeremy Polk   Madison, MSDNF 144079  1024 

Men - Cat 1 - Expert - 40-49

 Place Points NameCity, StateTime USAC #BibTeam
1 Sean Ahmadi   2:11:48.41  1064 
2 Chris St.Peter   Brevard, NC2:17:51.14 255077  1061 
3 John Hoover   Mc Donald, TN2:17:58.64 127337  1038 Scenic City Velo
4 Tyson Geren   Chattanooga, TN2:20:13.10 137722  1005 
5 Brady Rogers   Atlanta, GA2:20:39.41 144524  1079 
6 David Darden   Birmingham, AL2:20:51.18 173143  1063 SmithLock
7 Mark Fasczewski   Greensboro, NC2:22:08.54 112145  1065 Scenic City Velo
8 Tony Esposito   Anniston, AL2:22:15.12 173319  1080 Mellow Mushroom Racing
9 Michael Hurley   Mountain Brook, AL2:25:28.77 103698  1029 Alabama Masters Cycling
10 Francis Fessler   Brentwood, TN2:27:00.41 218743  1074 
11 Matt Zhun   Kennesaw, GA2:32:08.76 39465  1057 Sfatto
12 Ian Jones   Memphis, TN2:34:31.76 126910  1058 Oxford Cycling
13 Christopher Cundiff   Owens Cross Roads, ALDNF 138418  1026 Moab/middle Tennessee Velo
14 Scott Staubach   Montgomery, ALDNF 146311  1054 Tristar Cycling Team
15 William Moritz   Houston, TXDNF 161036  1044 

Men - Cat 1 - Expert - 50-99

 Place Points NameCity, StateTime USAC #BibTeam
1 Terry Duran   Hailey, ID2:13:02.47 82946  1069 Birmingham Velo
2 James Frith Jr   Martinsville, VA2:17:53.80 193116  1001 Greensboro Velo Club
3 Hardwick Gregg   Helena, AL2:21:25.42 14094  1015 
4 Miroslav Novak   Huntsville, AL2:21:39.58 127462  1076 Alabama Masters Cycling
5 James Hall   Birmingham, AL2:25:11.50 85274  1070 
6 John Elsner   Valrico, FL2:34:35.25 213724  1048 

Men - Cat 2 - Sport - 19-24

 Place Points NameCity, StateTime USAC #BibTeam
1 Dakota Pittman   Mount Airy, NC1:40:11.35 309440  2032 
2 Travis Brown   Lakeland, FL1:43:45.21 301361  2039 
3 Zachary McCool   Redfield, AR1:48:24.51 308184  2104 
4 Scott Hanson   Natchez, MS1:52:46.30 308037  2041 
5 Victor Karm   Phenix City, AL1:54:13.33 239403  2098 Columbus Bike Racing Team
6 Wes Morrissette   1:57:34.03  2121 
7 Robert Hardy   2:05:21.59  2122 
8 Mason Reaves   2:12:04.70  2170 
9 Justin Brodnax   2:40:47.58  2191 
10 Donald Meadows   3:13:17.49  2171 
11 Blake Bennett   DNF  2148 

Men - Cat 2 - Sport - 25-29

 Place Points NameCity, StateTime USAC #BibTeam
1 Chris Hughes   Atlanta, GA1:38:48.51 307268  2189 
2 Josh Powell   1:39:05.93  2062 
3 Brian LeJeune   Baton Rouge, LA1:39:34.28 242174  2162 Raising Cane's Racing
4 Andrew Sorey   Terry, MS1:42:11.22 290191  2092 
5 Josh Smyth   1:42:40.58  2196 
6 Joseph Karpus   Atlanta, GA1:44:18.92 306127  2183 
7 N Blake Gill   Northport, AL1:46:17.68 154879  2072 Competitive Velo Cycling
8 Justin Poland   1:51:17.87  2174 
9 Aaron Valero   2:01:01.76  2152 
10 Constantin Platon   2:02:12.19  2034 
11 David Neiles   2:05:18.62  2151 
12 shaun claiborne   Gulf Shores, AL2:12:10.58 314260  2064 
13 John Mcdowell   2:17:48.40  2016 
14 Seth Griffith   2:30:41.88  2157 
15 Joseph Brew   Sewanee, TNDNF 229868  2185 Scenic City Velo

Men - Cat 2 - Sport - 30-34

 Place Points NameCity, StateTime USAC #BibTeam
1 Eric White   1:40:38.01  2197 
2 Billy Pirtle   1:42:10.03  2057 
3 Mark Muro   1:43:24.71  2126 BUMP – Texas Roadhouse
4 David Jones   Coeur D' Alene, ID1:51:46.89 696  2097 Wolverine Sports Club
5 Brit Mansell   1:52:52.07  2103 
6 Jacob Stone   Thompson's Station, TN2:02:50.33 209108  2180 
7 Jeff McCord   Birmingham, AL2:02:52.66 411940  2173 BUMP
8 BJ Peebles   2:06:14.88  2018 
9 Billy Hoover   2:17:35.90  2076 
10 Matthew Taylor   Mobile, AL2:38:38.61 276282  2142 

Men - Cat 2 - Sport - 35-39

 Place Points NameCity, StateTime USAC #BibTeam
1 Timothy Spence   Austin1:42:05.06 269816  2093 
2 Derek Delpero   Austin, TX1:43:45.34 283697  2026 Pirate Race Productions
3 James Webb   Kyle, TX1:43:51.91 199834  2025 
4 Brandon Thornton   1:44:47.52  2115 
5 Brad Cannon   Calhoun City, MS1:45:27.06 244620  2053 
6 Brad Mabry   Hoover, AL1:46:55.47 263070  2249 
7 Dustin Payne   Austin, TX1:47:06.01 248131  2013 Pirate Race Productions
8 Jon Rasmussen   1:48:03.32  2046 
9 jeremy peterson   Brevard, NC1:48:12.56 309389  2147 
10 Chad Parker   Jacksonville, FL1:48:21.12 27249  2000 
11 Ed Freyer   1:48:47.50  2181 
12 Geoff Leonard   Pelham, AL1:49:44.51 182397  2178 Bike Link Racing
13 Ladd Dunwoody   Marietta, GA1:49:48.40 10226  2184 TEAM ENGINE
14 Jeremy Wesson   Ridgeland, MS1:50:55.33 240145  2246 
15 Brain Atkins   1:52:36.30  2012 
16 Dan Sheets   1:52:43.62  2081 
17 Paul Pulsifer   Long Beach, MS1:53:54.85 243016  2130 
18 Steve Smith   1:54:32.68  2090 
19 Matt Roland   Sumrall, MS1:57:44.59 276463  2091 
20 Jason Spikes   1:58:25.76  2129 
21 George Dufour   Flowood, MS2:00:18.95 308822  2082 
22 Paul Hein   2:03:32.82  2055 
23 Chad Brown   Pelham, AL2:03:47.96 103372  2168 Tristar Cycling Team
24 Takashi Yano   2:03:54.28  2137 
25 Stewart Phillips   2:11:41.88  2153 
26 James Catron   2:11:51.57  2111 
27 Darren Sorrells   2:12:41.51  2113 
28 Shane Byrd   2:13:41.18  2190 
29 James Smith   2:22:45.85  2120 
30 Mike Smith   2:23:45.42  2154 
31 Jayce Powell   Madison, MSDNF 233697  2036 
32 Travis Fowler   DNF  2145 
33 Will Ford   DNF  2116 
34 Michael Powell   DNF  2175 

Men - Cat 2 - Sport - 40-44

 Place Points NameCity, StateTime USAC #BibTeam
1 David Meadows   1:37:56.61  2200 
2 Donald York   Huntsville, AL1:40:39.55 100981  2138 Spring City Cycling Club
3 Travis Yost   Birmingham, AL1:41:11.07 144941  2139 Steel City Cycling
4 Neil Blalock   Barnesville, GA1:42:22.92 307851  2110 
5 Stephen Erickson   Little Rock, AR1:42:55.74 255356  2155 Tristar Cycling Team
6 Jimmy Smith   1:43:27.79  2112 
7 Heath Goebel   1:47:20.16  2181 
8 Robert Gannon   Columbiana, AL1:47:29.21 228951  2140 Tristar Cycling Team
9 Curt Culbreth   1:48:56.20  2075 
10 David Phillips   Charleston, WV1:50:56.44 227698  45 
11 Anthony Blanchard   Coker, AL1:51:34.73 309786  2030 
12 jeff papenfus   Greenville, SC1:51:38.33 300558  2007 
13 Sean Hess   Saint Augustine, FL1:52:05.35 232628  2063 
14 Alexander McCall   1:54:46.87  2164 
15 Greg Elrod   1:55:34.65  2198 
16 Jason Sanders   Brandon, MS1:56:39.13 259330  2144 
17 Chris McCrory   Acworth, GA1:58:59.42 93422  2171 North Georgia Cycling Association Inc.
18 William Clemons   2:00:35.55  2066 
19 Jimbo Mitchell   2:03:45.63  3048 
20 Mike Phebus   2:05:25.16  2019 
21 Darren Payne   2:07:32.23  2118 
22 Stephen Manston   2:08:42.37  2089 
23 Scott Pierce   2:10:56.34  2132 
24 Hideaki Nishioka   2:13:00.18  2124 
25 David Abbitt   2:14:21.30  2177 
26 PAtrick Sims   2:31:23.45  2086 
27 Jimmy Mitchell   DNF  2163 
28 Lonny Pendergrass   DNF  2199 
29 Anson Keller   DNF  2099 

Men - Cat 2 - Sport - 45-49

 Place Points NameCity, StateTime USAC #BibTeam
1 Larry Stanley   Leeds, AL1:39:37.51 223103  2131 Ccr
2 Sean Duffy   Gautier, MS1:44:19.13 260362  2166 
3 Jim Singleton   Tallahassee, FL1:48:18.54 155912  2087 
4 Robert Hope   Tuscaloosa, AL1:49:15.81 201983  2187 Velo City Pro Cycle
5 Greg Bryant   1:49:46.10  2001 
6 Mitchell Moses   Birmingham, AL1:51:17.49 303934  2141 
7 Robert Saxon   1:51:33.66  2078 
8 Mark Murphy   Biloxi, MS1:54:45.81 157083  2114 
9 Mike Reeves   1:54:49.81  2056 
10 Scott Burkhalter   Columbus, GA1:58:01.11 310530  2045 
11 Doug Sappington   1:58:38.12  2071 
12 Glen Allen   2:01:59.73  2008 
13 Gary Nix   2:06:36.85  2125 
14 Chris Ready   Arden, NC2:08:08.03 29302  2048 Team Sponsorus
15 Brandon Phillips   2:09:25.64  2021 
16 Blake Pittman   2:10:21.26  2031 
17 Ron Reddish   2:11:19.04  2049 
18 Michael Whittington   Peachtree City, GA2:12:01.89 38099  2146 
19 James Rhoden   2:15:26.16  2108 
20 Robert Barnett   2:20:23.03  2017 
21 Chad Edwards   2:30:19.40  2167 
22 Mike Kazzie   2:33:40.65  2143 
23 Marty Whitner   DNF  2107 
24 Ken Foster   DNF  2159 

Men - Cat 2 - Sport - 50-59

 Place Points NameCity, StateTime USAC #BibTeam
1 Casey Fannin   1:35:28.36  2160 
2 Bob Schlemmer   1:42:30.42  2079 
3 Mike Herring   Pelham, AL1:48:35.43 78492  2059 Ccr
4 Robert Patrick   1:51:22.06  2011 
5 Doug Goodwin   Birmingham, AL1:52:03.05 272564  2136 Red Mountain Wheelmen
6 Bill Prater   1:56:06.91  2042 
8 Gary Robertson   2:00:35.51  2058 
9 Delynn Burkhalter   Columbus, MS2:01:56.84 305464  2043 
10 Robert Gonzalez   Ridgeland , MSDNF 277615  2014 

Men - Cat 2 - Sport - 60-99

 Place Points NameCity, StateTime USAC #BibTeam
1 Ken Burst   1:52:57.21  2050 
2 Philip Cheek   Marietta, GA1:58:23.76 137704  2061 North Georgia Cycling Association Inc.
3 Michael Taglio   Murfreesboro, TN2:40:51.15 209001  2169 Moab/middle Tennessee Velo
4 John Brigham   Gardendale, ALDNF 158581  2038 

Men - Cat 3 - Bgn - 10 & under

 Place Points NameCity, StateTime USAC #BibTeam
1 Andy Mullins   0:14:46.33  3074 
2 William Seitz   0:16:55.08  3081 

Men - Cat 3 - Bgn - 30-34

 Place Points NameCity, StateTime USAC #BibTeam
1 Cary Martinez   0:46:49.67  1032 
2 Joseph Heintz   0:46:57.61  2057 
3 Kasey Burleson   0:47:10.89  3056 
4 James Choo   0:53:24.75  3018 
5 Shane Boyce   0:58:06.26  3065 
6 Micah Powe   1:01:24.10  3011 

Men - Cat 3 - Bgn - 35-39

 Place Points NameCity, StateTime USAC #BibTeam
1 Jared Farrell   0:45:22.84  3080 
2 Paul Dobbs   0:47:50.08  3079 
3 Felix Hotard   0:50:25.34  3031 
4 Scott Rivkin   0:52:05.81  3086 
5 Sean Boulanger   Pensacola, FL0:53:29.44 314920  814 
6 Bill Wilbourne   1:00:17.56  3058 
7 Patrick Hein   1:03:04.60  3000 
8 Jeff Adair   1:07:46.74  3003 
9 Chad Neal   1:08:09.37  3055 
10 Bo Bozeman   1:20:59.17  3010 
11 Jay Mcgullion   DNF  3046 

Men - Cat 3 - Bgn - 40-44

 Place Points NameCity, StateTime USAC #BibTeam
1 David Bufton   0:47:49.46  3012 
2 David Wright   0:49:12.89  3059 
3 Hays Webb   0:49:26.97  3051 
4 Jason Parker   0:49:36.99  3063 
5 Greg Gilbert   0:49:40.30  3008 
6 Harrison Lanford   0:52:07.31  3042 
7 David Baltscheit   0:52:14.97  3009 
8 Tom Kizziah   0:52:37.32  3041 
9 Keith Walker   1:02:01.01  2248 
10 Jimmy Hobart   1:02:32.37  3021 
11 Michael Smitherman   1:02:47.47  3024 
12 Lamar Zuiderhoek   1:03:02.74  3082 

Men - Cat 3 - Bgn - 45-49

 Place Points NameCity, StateTime USAC #BibTeam
1 Todd Hall   0:43:54.85  3025 
2 Timothy Morgan   0:52:20.04  3050 Gg Events Management
3 Joe Fuller   0:53:46.64  3006 
4 George Hauser   0:54:39.88  3013 

Men - Cat 3 - Bgn - 50-99

 Place Points NameCity, StateTime USAC #BibTeam
1 Hagood Terrell   0:48:21.80  3062 
2 Johnny Smith   Brookhaven, MS0:48:34.95 257846  2088 
3 Billy Faulk   Cullman, AL0:49:48.44 253344  3073 
4 Fletcher Scott   0:51:35.13  3030 
5 Searcy Elebash   0:51:46.01  3077 
6 Kerry Hughes   0:52:12.74  3001 
7 Scott Collins   0:53:30.55  3023 
8 Eddie Shadeed   0:56:00.94  3026 
9 Richard Russell   0:56:45.24  3019 
10 Kenny Coffman   DNF  3022 

Women - Single Speed - open

 Place Points NameCity, StateTime USAC #BibTeam
6 Ursula Sandefur   Auburn, AL1:43:35.34 31203  2069 Tristar Cycling Team

Women - Cat 2 Junior - Sport - 15-18

 Place Points NameCity, StateTime USAC #BibTeam
5 Ben Whitright   2:31:01.90  2135 

Women - Cat 1 Junior - Expert - 15-18

 Place Points NameCity, StateTime USAC #BibTeam
1 Kara Uhl   2:46:12.79  1034 
2 Emily Parker   Corryton, TN2:57:38.06 243860  1002 

Women - Pro

 Place Points NameCity, StateTime USAC #BibTeam
1 Shonny Vanlandingham   Captain Cook, HI2:11:02.85 89955  17 
2 Kimberly Flynn   Greensboro, NC2:17:40.72 122752  Scenic City Velo
3 Melanie McQuaid   2:22:05.00  14 
4 Shae Rainer   Georgetown , TX2:24:16.56 176425  Austin Flyers
5 Erin Disterheft   Eau Claire, MI2:55:28.83 192951  
6 Anina Aaron   Oak Ridge, NC3:04:09.58 244684  
7 AnnaJean Dallaire   Georgetown, INDNF 217836  23 

Women - Cat 1 - Expert - 19-99

 Place Points NameCity, StateTime USAC #BibTeam
1 Tiffany Ballew   Atlanta, GA2:29:08.83 221612  1073 Sorella Cycling
2 Norma Rainwater   Oakwood, GA2:31:08.89 243133  1019 
3 Amanda Green   Estill Springs, TN2:35:35.72 242155  1011 Scenic City Velo
4 Jennifer Horn   Atlanta, GA2:35:37.34 271357  1028 
5 Heather Ladd   Little Rock, AR2:36:18.11 269877  1040 Tristar Cycling Team
6 Loretta Simpson   Woodstock, GA2:36:55.50 161662  1068 Sorella Cycling
7 Sara Krause   Austin, TX2:40:42.83 185228  1031 
8 Catherine Peacock   Athens, GA2:41:38.93 222160  1007 Scenic City Velo
9 Mary Fowler   2:42:02.62  1059 
10 Philicia Marion   Mount Airy, NC2:51:13.50 220598  1023 Quick Release Racing Inc.
11 Shannon Mathis   Nashville, TN2:53:39.58 186727  1042 Scenic City Velo
12 Erin Deemer   Winter Park, FL2:55:41.86 284899  1067 
13 Lena Yarbrough   Natchez, MS3:05:43.52 201848  1056 
14 Catherine Moritz   Houston, TXDNF 203939  1043 
15 Kathleen Karpinski   Austin, TXDNF 241074  1022 

Women - Cat 2 - Sport - 19-29

 Place Points NameCity, StateTime USAC #BibTeam
1 Kelsey Markham   Collierville, TN2:03:53.50 283199  2102 
2 Alviola Haley   2:05:28.44  2037 

Women - Cat 2 - Sport - 30-39

 Place Points NameCity, StateTime USAC #BibTeam
1 Krista Casazza   1:55:01.50  2054 
2 Jacqueline Ledoux   1:59:35.16  2206 
3 Elizabeth Fulton   Haymarket, VA2:09:14.63 311627  2002 
4 Natalie Smith   Fort Payne, AL2:10:19.96 285333  683 Birmingham Bicycle Company
5 Kristi Welch   Austin, TX2:16:16.46 222610  2027 Bicycle Sport Shop
6 Trish Albert   Smyrna, GA2:34:04.07 140671  2006 Sorella Cycling
7 Shana Garcia   Durango, CODNF 286916  2010 

Women - Cat 2 - Sport - 40-99

 Place Points NameCity, StateTime USAC #BibTeam
1 Lori Goldweber   1:59:37.42  2128 
2 Chris Benkly   Royal Palm Beach, FL2:08:48.07 245177  2024 
3 Carla Jennings   Austin, TX2:16:22.63 237027  2028 Bicycle Sport Shop
4 Sunny Sandidge   Atlanta, GA2:30:41.16 259960  2156 
5 Gretchen Ulman   3:11:34.60  2222 
6 Victoria McHugh   3:11:35.02  2105 

Women - Cat 3 - Bgn - 19-29

 Place Points NameCity, StateTime USAC #BibTeam
1 Mary Ellen Mattison   0:56:52.55  3078 
2 Stephanie Butler   0:59:59.55  3061 
3 Brittany Hopson   1:02:58.54  3028 
4 Mary McWhirter   1:08:50.23  3047 BUMP

Women - Cat 3 - Bgn - 30-39

 Place Points NameCity, StateTime USAC #BibTeam
1 Zuzanna Zajac   0:50:18.07  3035 
2 Carlie Spence   Austin, TX0:51:59.58 315548  3038 
3 Rachael Rowray   0:53:56.92  3070 
4 Casey Frederickson   0:57:11.80  3002 BUMP
5 Leslie Whatley   DNF  3057 

Women - Cat 3 - Bgn - 40-99

 Place Points NameCity, StateTime USAC #BibTeam
1 Paula Lamberson   0:56:32.19  3072 

Report missing or incorrect license numbers

Volkswagen
OSMOSierra NevadaSpyBonk BreakerUSACDFCUOREShimano
UCI USA Cycling is the official governing body for all disciplines of competitive cycling in the United States. The 501c3, membership-based organization aims both to achieve sustained success in international cycling competition and to grow competitive cycling in America while delivering an exceptional customer experience.
View Children's Online Privacy Protection Policy
US Olympic Committee